sensor_id;sensor_type;location;lat;lon;timestamp;P1;durP1;ratioP1;P2;durP2;ratioP2
37455;SDS011;23316;50.718;7.328;2023-06-26T00:00:05;6.55;;;5.28;;
37455;SDS011;23316;50.718;7.328;2023-06-26T00:02:33;9.00;;;5.30;;
37455;SDS011;23316;50.718;7.328;2023-06-26T00:05:00;7.78;;;5.03;;
37455;SDS011;23316;50.718;7.328;2023-06-26T00:07:28;8.73;;;5.00;;
37455;SDS011;23316;50.718;7.328;2023-06-26T00:09:56;6.60;;;5.32;;
37455;SDS011;23316;50.718;7.328;2023-06-26T00:12:24;9.45;;;5.05;;
37455;SDS011;23316;50.718;7.328;2023-06-26T00:14:52;6.50;;;4.95;;
37455;SDS011;23316;50.718;7.328;2023-06-26T00:17:20;6.57;;;5.43;;
37455;SDS011;23316;50.718;7.328;2023-06-26T00:19:47;6.03;;;4.93;;
37455;SDS011;23316;50.718;7.328;2023-06-26T00:22:14;7.18;;;5.13;;
37455;SDS011;23316;50.718;7.328;2023-06-26T00:24:41;6.18;;;5.07;;
37455;SDS011;23316;50.718;7.328;2023-06-26T00:27:10;6.47;;;5.00;;
37455;SDS011;23316;50.718;7.328;2023-06-26T00:29:37;7.55;;;5.88;;
37455;SDS011;23316;50.718;7.328;2023-06-26T00:32:06;7.13;;;5.53;;
37455;SDS011;23316;50.718;7.328;2023-06-26T00:34:34;6.60;;;5.28;;
37455;SDS011;23316;50.718;7.328;2023-06-26T00:37:02;7.25;;;5.30;;
37455;SDS011;23316;50.718;7.328;2023-06-26T00:39:29;8.60;;;5.30;;
37455;SDS011;23316;50.718;7.328;2023-06-26T00:41:56;6.45;;;5.28;;
37455;SDS011;23316;50.718;7.328;2023-06-26T00:44:23;6.47;;;5.45;;
37455;SDS011;23316;50.718;7.328;2023-06-26T00:46:51;6.47;;;5.25;;
37455;SDS011;23316;50.718;7.328;2023-06-26T00:49:19;6.45;;;4.82;;
37455;SDS011;23316;50.718;7.328;2023-06-26T00:51:47;6.90;;;5.20;;
37455;SDS011;23316;50.718;7.328;2023-06-26T00:54:15;7.00;;;5.13;;
37455;SDS011;23316;50.718;7.328;2023-06-26T00:56:45;5.70;;;5.00;;
37455;SDS011;23316;50.718;7.328;2023-06-26T00:59:13;8.23;;;5.28;;
37455;SDS011;23316;50.718;7.328;2023-06-26T01:01:41;6.95;;;4.90;;
37455;SDS011;23316;50.718;7.328;2023-06-26T01:04:08;7.22;;;5.38;;
37455;SDS011;23316;50.718;7.328;2023-06-26T01:09:15;5.80;;;4.80;;
37455;SDS011;23316;50.718;7.328;2023-06-26T01:11:44;6.88;;;5.35;;
37455;SDS011;23316;50.718;7.328;2023-06-26T01:14:12;6.55;;;5.07;;
37455;SDS011;23316;50.718;7.328;2023-06-26T01:16:39;6.60;;;5.35;;
37455;SDS011;23316;50.718;7.328;2023-06-26T01:19:13;7.68;;;5.45;;
37455;SDS011;23316;50.718;7.328;2023-06-26T01:21:51;7.32;;;5.72;;
37455;SDS011;23316;50.718;7.328;2023-06-26T01:24:25;6.68;;;5.03;;
37455;SDS011;23316;50.718;7.328;2023-06-26T01:27:01;7.60;;;5.13;;
37455;SDS011;23316;50.718;7.328;2023-06-26T01:29:29;6.95;;;5.00;;
37455;SDS011;23316;50.718;7.328;2023-06-26T01:31:59;7.65;;;4.75;;
37455;SDS011;23316;50.718;7.328;2023-06-26T01:34:27;6.32;;;4.50;;
37455;SDS011;23316;50.718;7.328;2023-06-26T01:36:56;5.82;;;4.57;;
37455;SDS011;23316;50.718;7.328;2023-06-26T01:39:24;7.32;;;5.38;;
37455;SDS011;23316;50.718;7.328;2023-06-26T01:41:52;6.28;;;4.93;;
37455;SDS011;23316;50.718;7.328;2023-06-26T01:44:25;5.75;;;4.68;;
37455;SDS011;23316;50.718;7.328;2023-06-26T01:46:58;6.95;;;5.13;;
37455;SDS011;23316;50.718;7.328;2023-06-26T01:49:29;7.35;;;4.57;;
37455;SDS011;23316;50.718;7.328;2023-06-26T01:52:06;7.65;;;4.93;;
37455;SDS011;23316;50.718;7.328;2023-06-26T01:54:42;5.78;;;4.75;;
37455;SDS011;23316;50.718;7.328;2023-06-26T01:57:19;5.97;;;5.00;;
37455;SDS011;23316;50.718;7.328;2023-06-26T01:59:50;6.78;;;5.43;;
37455;SDS011;23316;50.718;7.328;2023-06-26T02:02:19;6.43;;;4.93;;
37455;SDS011;23316;50.718;7.328;2023-06-26T02:04:46;5.75;;;4.90;;
37455;SDS011;23316;50.718;7.328;2023-06-26T02:07:16;7.78;;;5.22;;
37455;SDS011;23316;50.718;7.328;2023-06-26T02:09:43;6.60;;;5.22;;
37455;SDS011;23316;50.718;7.328;2023-06-26T02:12:11;7.45;;;5.60;;
37455;SDS011;23316;50.718;7.328;2023-06-26T02:14:54;6.10;;;5.22;;
37455;SDS011;23316;50.718;7.328;2023-06-26T02:17:22;7.32;;;5.22;;
37455;SDS011;23316;50.718;7.328;2023-06-26T02:19:53;7.10;;;5.20;;
37455;SDS011;23316;50.718;7.328;2023-06-26T02:22:21;7.15;;;5.40;;
37455;SDS011;23316;50.718;7.328;2023-06-26T02:24:49;6.13;;;4.80;;
37455;SDS011;23316;50.718;7.328;2023-06-26T02:27:17;6.35;;;5.35;;
37455;SDS011;23316;50.718;7.328;2023-06-26T02:29:59;6.93;;;5.10;;
37455;SDS011;23316;50.718;7.328;2023-06-26T02:32:27;6.72;;;5.18;;
37455;SDS011;23316;50.718;7.328;2023-06-26T02:35:02;6.80;;;4.97;;
37455;SDS011;23316;50.718;7.328;2023-06-26T02:37:30;6.57;;;5.45;;
37455;SDS011;23316;50.718;7.328;2023-06-26T02:39:57;7.60;;;5.55;;
37455;SDS011;23316;50.718;7.328;2023-06-26T02:42:25;8.23;;;5.40;;
37455;SDS011;23316;50.718;7.328;2023-06-26T02:44:56;6.88;;;4.80;;
37455;SDS011;23316;50.718;7.328;2023-06-26T02:47:23;6.95;;;5.32;;
37455;SDS011;23316;50.718;7.328;2023-06-26T02:49:50;7.00;;;5.43;;
37455;SDS011;23316;50.718;7.328;2023-06-26T02:52:18;6.10;;;4.97;;
37455;SDS011;23316;50.718;7.328;2023-06-26T02:54:45;7.28;;;5.60;;
37455;SDS011;23316;50.718;7.328;2023-06-26T02:57:12;7.00;;;5.47;;
37455;SDS011;23316;50.718;7.328;2023-06-26T02:59:40;7.05;;;5.25;;
37455;SDS011;23316;50.718;7.328;2023-06-26T03:02:08;8.48;;;5.43;;
37455;SDS011;23316;50.718;7.328;2023-06-26T03:04:39;7.53;;;5.13;;
37455;SDS011;23316;50.718;7.328;2023-06-26T03:07:10;7.55;;;5.30;;
37455;SDS011;23316;50.718;7.328;2023-06-26T03:09:38;6.57;;;5.35;;
37455;SDS011;23316;50.718;7.328;2023-06-26T03:12:05;6.60;;;4.97;;
37455;SDS011;23316;50.718;7.328;2023-06-26T03:14:34;9.07;;;5.22;;
37455;SDS011;23316;50.718;7.328;2023-06-26T03:17:01;6.93;;;5.55;;
37455;SDS011;23316;50.718;7.328;2023-06-26T03:19:30;8.57;;;5.68;;
37455;SDS011;23316;50.718;7.328;2023-06-26T03:21:58;6.85;;;4.95;;
37455;SDS011;23316;50.718;7.328;2023-06-26T03:24:25;6.82;;;5.43;;
37455;SDS011;23316;50.718;7.328;2023-06-26T03:26:52;6.53;;;4.78;;
37455;SDS011;23316;50.718;7.328;2023-06-26T03:29:20;7.95;;;5.40;;
37455;SDS011;23316;50.718;7.328;2023-06-26T03:31:47;6.65;;;4.95;;
37455;SDS011;23316;50.718;7.328;2023-06-26T03:34:27;8.18;;;5.53;;
37455;SDS011;23316;50.718;7.328;2023-06-26T03:39:36;8.18;;;5.75;;
37455;SDS011;23316;50.718;7.328;2023-06-26T03:42:03;7.90;;;6.00;;
37455;SDS011;23316;50.718;7.328;2023-06-26T03:44:31;8.30;;;5.55;;
37455;SDS011;23316;50.718;7.328;2023-06-26T03:46:58;8.93;;;6.68;;
37455;SDS011;23316;50.718;7.328;2023-06-26T03:49:25;27.60;;;16.85;;
37455;SDS011;23316;50.718;7.328;2023-06-26T03:51:53;12.00;;;8.27;;
37455;SDS011;23316;50.718;7.328;2023-06-26T03:54:20;10.82;;;6.30;;
37455;SDS011;23316;50.718;7.328;2023-06-26T03:56:48;6.85;;;5.75;;
37455;SDS011;23316;50.718;7.328;2023-06-26T03:59:16;8.82;;;5.32;;
37455;SDS011;23316;50.718;7.328;2023-06-26T04:01:43;6.60;;;4.78;;
37455;SDS011;23316;50.718;7.328;2023-06-26T04:04:10;8.57;;;5.30;;
37455;SDS011;23316;50.718;7.328;2023-06-26T04:06:37;7.72;;;4.82;;
37455;SDS011;23316;50.718;7.328;2023-06-26T04:09:05;8.27;;;6.53;;
37455;SDS011;23316;50.718;7.328;2023-06-26T04:11:32;7.90;;;5.70;;
37455;SDS011;23316;50.718;7.328;2023-06-26T04:14:00;9.30;;;6.25;;
37455;SDS011;23316;50.718;7.328;2023-06-26T04:16:28;8.73;;;6.00;;
37455;SDS011;23316;50.718;7.328;2023-06-26T04:18:55;8.15;;;6.93;;
37455;SDS011;23316;50.718;7.328;2023-06-26T04:21:23;7.47;;;5.93;;
37455;SDS011;23316;50.718;7.328;2023-06-26T04:23:51;8.00;;;6.13;;
37455;SDS011;23316;50.718;7.328;2023-06-26T04:26:18;7.65;;;5.60;;
37455;SDS011;23316;50.718;7.328;2023-06-26T04:28:45;7.95;;;6.05;;
37455;SDS011;23316;50.718;7.328;2023-06-26T04:31:14;8.32;;;6.03;;
37455;SDS011;23316;50.718;7.328;2023-06-26T04:33:41;8.52;;;5.90;;
37455;SDS011;23316;50.718;7.328;2023-06-26T04:36:08;8.30;;;6.35;;
37455;SDS011;23316;50.718;7.328;2023-06-26T04:38:36;8.45;;;5.63;;
37455;SDS011;23316;50.718;7.328;2023-06-26T04:41:04;7.30;;;5.47;;
37455;SDS011;23316;50.718;7.328;2023-06-26T04:43:31;9.38;;;5.68;;
37455;SDS011;23316;50.718;7.328;2023-06-26T04:45:58;7.07;;;5.35;;
37455;SDS011;23316;50.718;7.328;2023-06-26T04:48:27;8.38;;;5.85;;
37455;SDS011;23316;50.718;7.328;2023-06-26T04:50:54;7.57;;;5.30;;
37455;SDS011;23316;50.718;7.328;2023-06-26T04:53:22;8.20;;;5.70;;
37455;SDS011;23316;50.718;7.328;2023-06-26T04:55:50;8.32;;;6.20;;
37455;SDS011;23316;50.718;7.328;2023-06-26T04:58:17;9.85;;;5.50;;
37455;SDS011;23316;50.718;7.328;2023-06-26T05:00:45;9.15;;;6.07;;
37455;SDS011;23316;50.718;7.328;2023-06-26T05:03:17;7.93;;;6.15;;
37455;SDS011;23316;50.718;7.328;2023-06-26T05:05:47;11.30;;;5.95;;
37455;SDS011;23316;50.718;7.328;2023-06-26T05:08:15;7.70;;;5.35;;
37455;SDS011;23316;50.718;7.328;2023-06-26T05:10:43;7.57;;;5.72;;
37455;SDS011;23316;50.718;7.328;2023-06-26T05:13:11;9.63;;;6.55;;
37455;SDS011;23316;50.718;7.328;2023-06-26T05:15:40;10.13;;;6.07;;
37455;SDS011;23316;50.718;7.328;2023-06-26T05:18:08;8.30;;;6.32;;
37455;SDS011;23316;50.718;7.328;2023-06-26T05:20:36;11.52;;;6.22;;
37455;SDS011;23316;50.718;7.328;2023-06-26T05:23:05;10.00;;;5.78;;
37455;SDS011;23316;50.718;7.328;2023-06-26T05:25:32;8.32;;;6.05;;
37455;SDS011;23316;50.718;7.328;2023-06-26T05:28:00;8.93;;;6.20;;
37455;SDS011;23316;50.718;7.328;2023-06-26T05:30:30;8.00;;;6.53;;
37455;SDS011;23316;50.718;7.328;2023-06-26T05:33:01;9.18;;;6.25;;
37455;SDS011;23316;50.718;7.328;2023-06-26T05:35:29;12.13;;;6.03;;
37455;SDS011;23316;50.718;7.328;2023-06-26T05:37:57;10.52;;;6.13;;
37455;SDS011;23316;50.718;7.328;2023-06-26T05:40:26;9.32;;;5.70;;
37455;SDS011;23316;50.718;7.328;2023-06-26T05:42:54;9.73;;;6.70;;
37455;SDS011;23316;50.718;7.328;2023-06-26T05:45:22;10.75;;;7.13;;
37455;SDS011;23316;50.718;7.328;2023-06-26T05:47:49;8.48;;;6.07;;
37455;SDS011;23316;50.718;7.328;2023-06-26T05:50:17;9.63;;;6.07;;
37455;SDS011;23316;50.718;7.328;2023-06-26T05:52:45;9.18;;;6.30;;
37455;SDS011;23316;50.718;7.328;2023-06-26T05:55:13;9.57;;;6.22;;
37455;SDS011;23316;50.718;7.328;2023-06-26T05:57:42;9.77;;;6.38;;
37455;SDS011;23316;50.718;7.328;2023-06-26T06:00:12;10.38;;;6.70;;
37455;SDS011;23316;50.718;7.328;2023-06-26T06:02:40;6.95;;;5.60;;
37455;SDS011;23316;50.718;7.328;2023-06-26T06:05:08;11.05;;;6.35;;
37455;SDS011;23316;50.718;7.328;2023-06-26T06:07:36;7.93;;;5.93;;
37455;SDS011;23316;50.718;7.328;2023-06-26T06:10:03;9.27;;;5.80;;
37455;SDS011;23316;50.718;7.328;2023-06-26T06:12:31;9.88;;;6.47;;
37455;SDS011;23316;50.718;7.328;2023-06-26T06:15:00;7.28;;;5.53;;
37455;SDS011;23316;50.718;7.328;2023-06-26T06:17:27;8.05;;;5.68;;
37455;SDS011;23316;50.718;7.328;2023-06-26T06:19:54;9.40;;;5.70;;
37455;SDS011;23316;50.718;7.328;2023-06-26T06:22:21;12.90;;;6.22;;
37455;SDS011;23316;50.718;7.328;2023-06-26T06:24:49;7.25;;;5.47;;
37455;SDS011;23316;50.718;7.328;2023-06-26T06:27:17;8.60;;;5.38;;
37455;SDS011;23316;50.718;7.328;2023-06-26T06:29:44;9.35;;;4.90;;
37455;SDS011;23316;50.718;7.328;2023-06-26T06:32:13;8.35;;;5.32;;
37455;SDS011;23316;50.718;7.328;2023-06-26T06:34:40;8.80;;;5.47;;
37455;SDS011;23316;50.718;7.328;2023-06-26T06:37:07;11.27;;;5.43;;
37455;SDS011;23316;50.718;7.328;2023-06-26T06:39:34;11.45;;;5.53;;
37455;SDS011;23316;50.718;7.328;2023-06-26T06:42:01;7.78;;;4.93;;
37455;SDS011;23316;50.718;7.328;2023-06-26T06:44:29;12.88;;;5.82;;
37455;SDS011;23316;50.718;7.328;2023-06-26T06:46:56;14.55;;;5.32;;
37455;SDS011;23316;50.718;7.328;2023-06-26T06:49:25;8.18;;;4.93;;
37455;SDS011;23316;50.718;7.328;2023-06-26T06:51:52;9.38;;;4.93;;
37455;SDS011;23316;50.718;7.328;2023-06-26T06:54:19;8.57;;;4.85;;
37455;SDS011;23316;50.718;7.328;2023-06-26T06:56:47;8.07;;;5.22;;
37455;SDS011;23316;50.718;7.328;2023-06-26T06:59:14;9.82;;;4.80;;
37455;SDS011;23316;50.718;7.328;2023-06-26T07:01:41;7.32;;;4.65;;
37455;SDS011;23316;50.718;7.328;2023-06-26T07:04:08;10.68;;;4.80;;
37455;SDS011;23316;50.718;7.328;2023-06-26T07:06:37;8.95;;;4.82;;
37455;SDS011;23316;50.718;7.328;2023-06-26T07:09:04;9.02;;;4.78;;
37455;SDS011;23316;50.718;7.328;2023-06-26T07:11:32;9.50;;;4.40;;
37455;SDS011;23316;50.718;7.328;2023-06-26T07:13:59;12.20;;;5.43;;
37455;SDS011;23316;50.718;7.328;2023-06-26T07:16:26;8.73;;;5.07;;
37455;SDS011;23316;50.718;7.328;2023-06-26T07:18:53;9.68;;;5.38;;
37455;SDS011;23316;50.718;7.328;2023-06-26T07:21:20;10.57;;;5.25;;
37455;SDS011;23316;50.718;7.328;2023-06-26T07:23:49;7.55;;;4.60;;
37455;SDS011;23316;50.718;7.328;2023-06-26T07:26:16;9.30;;;4.70;;
37455;SDS011;23316;50.718;7.328;2023-06-26T07:28:43;10.38;;;5.10;;
37455;SDS011;23316;50.718;7.328;2023-06-26T07:31:11;11.15;;;5.60;;
37455;SDS011;23316;50.718;7.328;2023-06-26T07:33:38;9.88;;;5.53;;
37455;SDS011;23316;50.718;7.328;2023-06-26T07:36:05;14.55;;;5.43;;
37455;SDS011;23316;50.718;7.328;2023-06-26T07:38:33;8.52;;;5.05;;
37455;SDS011;23316;50.718;7.328;2023-06-26T07:41:01;10.13;;;4.82;;
37455;SDS011;23316;50.718;7.328;2023-06-26T07:43:28;16.45;;;5.80;;
37455;SDS011;23316;50.718;7.328;2023-06-26T07:45:56;10.90;;;4.57;;
37455;SDS011;23316;50.718;7.328;2023-06-26T07:48:24;12.93;;;4.97;;
37455;SDS011;23316;50.718;7.328;2023-06-26T07:50:51;8.77;;;4.53;;
37455;SDS011;23316;50.718;7.328;2023-06-26T07:53:19;11.77;;;5.07;;
37455;SDS011;23316;50.718;7.328;2023-06-26T07:55:46;9.70;;;5.30;;
37455;SDS011;23316;50.718;7.328;2023-06-26T07:58:15;10.88;;;5.40;;
37455;SDS011;23316;50.718;7.328;2023-06-26T08:00:42;20.58;;;5.78;;
37455;SDS011;23316;50.718;7.328;2023-06-26T08:03:09;12.07;;;5.25;;
37455;SDS011;23316;50.718;7.328;2023-06-26T08:05:36;10.30;;;4.57;;
37455;SDS011;23316;50.718;7.328;2023-06-26T08:08:03;16.77;;;5.25;;
37455;SDS011;23316;50.718;7.328;2023-06-26T08:10:32;10.90;;;5.28;;
37455;SDS011;23316;50.718;7.328;2023-06-26T08:12:59;13.25;;;5.03;;
37455;SDS011;23316;50.718;7.328;2023-06-26T08:15:28;8.85;;;4.78;;
37455;SDS011;23316;50.718;7.328;2023-06-26T08:17:55;12.85;;;4.82;;
37455;SDS011;23316;50.718;7.328;2023-06-26T08:20:22;12.73;;;4.88;;
37455;SDS011;23316;50.718;7.328;2023-06-26T08:22:49;8.48;;;4.30;;
37455;SDS011;23316;50.718;7.328;2023-06-26T08:25:18;10.55;;;4.38;;
37455;SDS011;23316;50.718;7.328;2023-06-26T08:27:45;11.68;;;4.90;;
37455;SDS011;23316;50.718;7.328;2023-06-26T08:30:13;16.85;;;5.20;;
37455;SDS011;23316;50.718;7.328;2023-06-26T08:32:42;13.80;;;5.68;;
37455;SDS011;23316;50.718;7.328;2023-06-26T08:35:09;14.02;;;5.40;;
37455;SDS011;23316;50.718;7.328;2023-06-26T08:37:36;11.55;;;4.97;;
37455;SDS011;23316;50.718;7.328;2023-06-26T08:40:04;10.45;;;4.30;;
37455;SDS011;23316;50.718;7.328;2023-06-26T08:42:33;10.30;;;4.53;;
37455;SDS011;23316;50.718;7.328;2023-06-26T08:45:01;13.20;;;5.47;;
37455;SDS011;23316;50.718;7.328;2023-06-26T08:47:29;12.57;;;5.32;;
37455;SDS011;23316;50.718;7.328;2023-06-26T08:50:03;11.48;;;4.80;;
37455;SDS011;23316;50.718;7.328;2023-06-26T08:52:35;10.75;;;4.82;;
37455;SDS011;23316;50.718;7.328;2023-06-26T08:55:05;13.63;;;5.35;;
37455;SDS011;23316;50.718;7.328;2023-06-26T08:57:35;13.38;;;5.75;;
37455;SDS011;23316;50.718;7.328;2023-06-26T09:00:03;11.73;;;4.50;;
37455;SDS011;23316;50.718;7.328;2023-06-26T09:02:34;11.82;;;5.50;;
37455;SDS011;23316;50.718;7.328;2023-06-26T09:05:03;9.90;;;4.43;;
37455;SDS011;23316;50.718;7.328;2023-06-26T09:07:31;13.13;;;5.35;;
37455;SDS011;23316;50.718;7.328;2023-06-26T09:09:58;10.80;;;4.82;;
37455;SDS011;23316;50.718;7.328;2023-06-26T09:12:26;20.02;;;5.35;;
37455;SDS011;23316;50.718;7.328;2023-06-26T09:14:54;15.20;;;5.03;;
37455;SDS011;23316;50.718;7.328;2023-06-26T09:17:24;8.30;;;5.05;;
37455;SDS011;23316;50.718;7.328;2023-06-26T09:19:51;10.68;;;4.72;;
37455;SDS011;23316;50.718;7.328;2023-06-26T09:22:20;10.77;;;4.88;;
37455;SDS011;23316;50.718;7.328;2023-06-26T09:24:48;12.77;;;4.95;;
37455;SDS011;23316;50.718;7.328;2023-06-26T09:27:16;11.75;;;4.05;;
37455;SDS011;23316;50.718;7.328;2023-06-26T09:29:44;12.45;;;4.20;;
37455;SDS011;23316;50.718;7.328;2023-06-26T09:32:12;10.05;;;4.30;;
37455;SDS011;23316;50.718;7.328;2023-06-26T09:34:41;11.30;;;4.28;;
37455;SDS011;23316;50.718;7.328;2023-06-26T09:37:11;10.65;;;4.03;;
37455;SDS011;23316;50.718;7.328;2023-06-26T09:39:40;9.07;;;3.78;;
37455;SDS011;23316;50.718;7.328;2023-06-26T09:42:07;10.45;;;4.07;;
37455;SDS011;23316;50.718;7.328;2023-06-26T09:44:35;8.25;;;3.72;;
37455;SDS011;23316;50.718;7.328;2023-06-26T09:47:03;7.78;;;3.45;;
37455;SDS011;23316;50.718;7.328;2023-06-26T09:49:30;13.50;;;3.67;;
37455;SDS011;23316;50.718;7.328;2023-06-26T09:51:59;8.13;;;3.75;;
37455;SDS011;23316;50.718;7.328;2023-06-26T09:54:27;14.70;;;4.20;;
37455;SDS011;23316;50.718;7.328;2023-06-26T09:56:57;7.22;;;3.28;;
37455;SDS011;23316;50.718;7.328;2023-06-26T09:59:34;9.20;;;3.55;;
37455;SDS011;23316;50.718;7.328;2023-06-26T10:02:01;10.52;;;4.35;;
37455;SDS011;23316;50.718;7.328;2023-06-26T10:04:29;11.90;;;4.22;;
37455;SDS011;23316;50.718;7.328;2023-06-26T10:06:56;14.35;;;4.45;;
37455;SDS011;23316;50.718;7.328;2023-06-26T10:09:27;9.75;;;4.20;;
37455;SDS011;23316;50.718;7.328;2023-06-26T10:11:59;12.60;;;3.95;;
37455;SDS011;23316;50.718;7.328;2023-06-26T10:14:31;7.88;;;3.65;;
37455;SDS011;23316;50.718;7.328;2023-06-26T10:17:01;6.97;;;3.33;;
37455;SDS011;23316;50.718;7.328;2023-06-26T10:19:33;10.27;;;3.38;;
37455;SDS011;23316;50.718;7.328;2023-06-26T10:22:02;7.50;;;3.03;;
37455;SDS011;23316;50.718;7.328;2023-06-26T10:24:31;9.25;;;3.05;;
37455;SDS011;23316;50.718;7.328;2023-06-26T10:27:03;9.30;;;3.05;;
37455;SDS011;23316;50.718;7.328;2023-06-26T10:29:37;8.75;;;2.83;;
37455;SDS011;23316;50.718;7.328;2023-06-26T10:32:04;9.68;;;3.00;;
37455;SDS011;23316;50.718;7.328;2023-06-26T10:34:34;9.00;;;2.78;;
37455;SDS011;23316;50.718;7.328;2023-06-26T10:37:02;8.00;;;2.60;;
37455;SDS011;23316;50.718;7.328;2023-06-26T10:39:45;11.38;;;3.55;;
37455;SDS011;23316;50.718;7.328;2023-06-26T10:44:44;8.43;;;2.97;;
37455;SDS011;23316;50.718;7.328;2023-06-26T10:47:28;9.88;;;3.22;;
37455;SDS011;23316;50.718;7.328;2023-06-26T10:49:56;12.05;;;3.40;;
37455;SDS011;23316;50.718;7.328;2023-06-26T10:52:25;10.45;;;3.25;;
37455;SDS011;23316;50.718;7.328;2023-06-26T10:54:54;9.40;;;3.10;;
37455;SDS011;23316;50.718;7.328;2023-06-26T10:57:25;8.00;;;2.72;;
37455;SDS011;23316;50.718;7.328;2023-06-26T11:02:46;10.20;;;2.85;;
37455;SDS011;23316;50.718;7.328;2023-06-26T11:05:23;9.93;;;2.60;;
37455;SDS011;23316;50.718;7.328;2023-06-26T11:08:02;6.05;;;2.33;;
37455;SDS011;23316;50.718;7.328;2023-06-26T11:10:30;12.07;;;2.60;;
37455;SDS011;23316;50.718;7.328;2023-06-26T11:13:17;6.45;;;2.22;;
37455;SDS011;23316;50.718;7.328;2023-06-26T11:15:46;9.80;;;2.38;;
37455;SDS011;23316;50.718;7.328;2023-06-26T11:18:14;12.02;;;3.17;;
37455;SDS011;23316;50.718;7.328;2023-06-26T11:20:42;5.47;;;2.13;;
37455;SDS011;23316;50.718;7.328;2023-06-26T11:23:09;8.13;;;2.33;;
37455;SDS011;23316;50.718;7.328;2023-06-26T11:25:37;8.82;;;2.90;;
37455;SDS011;23316;50.718;7.328;2023-06-26T11:28:05;9.52;;;2.75;;
37455;SDS011;23316;50.718;7.328;2023-06-26T11:30:33;13.07;;;2.88;;
37455;SDS011;23316;50.718;7.328;2023-06-26T11:33:04;7.80;;;2.67;;
37455;SDS011;23316;50.718;7.328;2023-06-26T11:35:32;8.40;;;2.28;;
37455;SDS011;23316;50.718;7.328;2023-06-26T11:38:00;7.03;;;2.42;;
37455;SDS011;23316;50.718;7.328;2023-06-26T11:40:30;8.48;;;2.50;;
37455;SDS011;23316;50.718;7.328;2023-06-26T11:42:59;6.78;;;2.35;;
37455;SDS011;23316;50.718;7.328;2023-06-26T11:45:29;9.95;;;2.60;;
37455;SDS011;23316;50.718;7.328;2023-06-26T11:47:59;8.20;;;2.88;;
37455;SDS011;23316;50.718;7.328;2023-06-26T11:50:27;7.50;;;2.30;;
37455;SDS011;23316;50.718;7.328;2023-06-26T11:52:54;5.47;;;1.92;;
37455;SDS011;23316;50.718;7.328;2023-06-26T11:55:22;10.57;;;2.70;;
37455;SDS011;23316;50.718;7.328;2023-06-26T11:57:49;5.40;;;2.00;;
37455;SDS011;23316;50.718;7.328;2023-06-26T12:00:17;6.20;;;1.90;;
37455;SDS011;23316;50.718;7.328;2023-06-26T12:02:45;9.40;;;2.28;;
37455;SDS011;23316;50.718;7.328;2023-06-26T12:05:14;5.68;;;2.33;;
37455;SDS011;23316;50.718;7.328;2023-06-26T12:07:42;5.22;;;2.10;;
37455;SDS011;23316;50.718;7.328;2023-06-26T12:10:11;7.60;;;1.90;;
37455;SDS011;23316;50.718;7.328;2023-06-26T12:12:40;7.03;;;2.00;;
37455;SDS011;23316;50.718;7.328;2023-06-26T12:15:08;6.32;;;1.83;;
37455;SDS011;23316;50.718;7.328;2023-06-26T12:17:40;7.75;;;2.05;;
37455;SDS011;23316;50.718;7.328;2023-06-26T12:20:18;10.43;;;2.20;;
37455;SDS011;23316;50.718;7.328;2023-06-26T12:22:46;8.25;;;1.98;;
37455;SDS011;23316;50.718;7.328;2023-06-26T12:25:14;6.35;;;2.28;;
37455;SDS011;23316;50.718;7.328;2023-06-26T12:27:44;5.45;;;2.17;;
37455;SDS011;23316;50.718;7.328;2023-06-26T12:30:12;5.55;;;1.92;;
37455;SDS011;23316;50.718;7.328;2023-06-26T12:32:39;5.88;;;2.25;;
37455;SDS011;23316;50.718;7.328;2023-06-26T12:35:07;15.73;;;2.42;;
37455;SDS011;23316;50.718;7.328;2023-06-26T12:37:37;8.68;;;2.42;;
37455;SDS011;23316;50.718;7.328;2023-06-26T12:40:15;9.43;;;2.05;;
37455;SDS011;23316;50.718;7.328;2023-06-26T12:42:44;7.43;;;2.25;;
37455;SDS011;23316;50.718;7.328;2023-06-26T12:45:12;6.20;;;2.15;;
37455;SDS011;23316;50.718;7.328;2023-06-26T12:47:40;6.82;;;2.20;;
37455;SDS011;23316;50.718;7.328;2023-06-26T12:50:08;7.60;;;2.17;;
37455;SDS011;23316;50.718;7.328;2023-06-26T12:52:35;5.05;;;2.08;;
37455;SDS011;23316;50.718;7.328;2023-06-26T12:55:04;5.15;;;1.77;;
37455;SDS011;23316;50.718;7.328;2023-06-26T12:57:32;7.75;;;2.08;;
37455;SDS011;23316;50.718;7.328;2023-06-26T13:00:00;6.68;;;1.73;;
37455;SDS011;23316;50.718;7.328;2023-06-26T13:02:28;5.45;;;1.98;;
37455;SDS011;23316;50.718;7.328;2023-06-26T13:04:55;5.47;;;1.98;;
37455;SDS011;23316;50.718;7.328;2023-06-26T13:07:22;5.68;;;2.15;;
37455;SDS011;23316;50.718;7.328;2023-06-26T13:09:52;5.57;;;1.83;;
37455;SDS011;23316;50.718;7.328;2023-06-26T13:12:19;4.55;;;2.00;;
37455;SDS011;23316;50.718;7.328;2023-06-26T13:14:46;8.15;;;1.73;;
37455;SDS011;23316;50.718;7.328;2023-06-26T13:17:14;6.03;;;2.10;;
37455;SDS011;23316;50.718;7.328;2023-06-26T13:19:41;4.40;;;1.77;;
37455;SDS011;23316;50.718;7.328;2023-06-26T13:22:09;6.53;;;2.05;;
37455;SDS011;23316;50.718;7.328;2023-06-26T13:24:36;6.65;;;2.17;;
37455;SDS011;23316;50.718;7.328;2023-06-26T13:27:05;4.93;;;1.85;;
37455;SDS011;23316;50.718;7.328;2023-06-26T13:29:32;8.93;;;2.03;;
37455;SDS011;23316;50.718;7.328;2023-06-26T13:31:59;8.90;;;2.20;;
37455;SDS011;23316;50.718;7.328;2023-06-26T13:34:27;7.15;;;2.15;;
37455;SDS011;23316;50.718;7.328;2023-06-26T13:36:54;6.15;;;2.30;;
37455;SDS011;23316;50.718;7.328;2023-06-26T13:39:22;6.68;;;1.88;;
37455;SDS011;23316;50.718;7.328;2023-06-26T13:41:49;5.78;;;2.30;;
37455;SDS011;23316;50.718;7.328;2023-06-26T13:44:18;7.30;;;2.10;;
37455;SDS011;23316;50.718;7.328;2023-06-26T13:46:45;6.78;;;2.22;;
37455;SDS011;23316;50.718;7.328;2023-06-26T13:49:12;6.43;;;2.30;;
37455;SDS011;23316;50.718;7.328;2023-06-26T13:51:40;4.10;;;1.95;;
37455;SDS011;23316;50.718;7.328;2023-06-26T13:54:12;7.28;;;2.80;;
37455;SDS011;23316;50.718;7.328;2023-06-26T13:56:39;6.28;;;2.33;;
37455;SDS011;23316;50.718;7.328;2023-06-26T13:59:06;5.18;;;2.05;;
37455;SDS011;23316;50.718;7.328;2023-06-26T14:01:35;5.90;;;1.92;;
37455;SDS011;23316;50.718;7.328;2023-06-26T14:04:02;5.82;;;1.90;;
37455;SDS011;23316;50.718;7.328;2023-06-26T14:06:29;8.98;;;2.00;;
37455;SDS011;23316;50.718;7.328;2023-06-26T14:08:57;6.30;;;1.80;;
37455;SDS011;23316;50.718;7.328;2023-06-26T14:11:26;6.43;;;1.88;;
37455;SDS011;23316;50.718;7.328;2023-06-26T14:13:53;5.25;;;1.48;;
37455;SDS011;23316;50.718;7.328;2023-06-26T14:16:20;4.55;;;1.60;;
37455;SDS011;23316;50.718;7.328;2023-06-26T14:18:49;6.22;;;1.83;;
37455;SDS011;23316;50.718;7.328;2023-06-26T14:21:16;4.68;;;1.70;;
37455;SDS011;23316;50.718;7.328;2023-06-26T14:23:43;5.45;;;1.85;;
37455;SDS011;23316;50.718;7.328;2023-06-26T14:26:10;6.05;;;1.80;;
37455;SDS011;23316;50.718;7.328;2023-06-26T14:28:38;5.18;;;1.67;;
37455;SDS011;23316;50.718;7.328;2023-06-26T14:31:05;7.97;;;1.48;;
37455;SDS011;23316;50.718;7.328;2023-06-26T14:33:32;5.35;;;1.70;;
37455;SDS011;23316;50.718;7.328;2023-06-26T14:36:02;3.88;;;1.45;;
37455;SDS011;23316;50.718;7.328;2023-06-26T14:38:30;4.03;;;1.20;;
37455;SDS011;23316;50.718;7.328;2023-06-26T14:40:57;5.05;;;1.88;;
37455;SDS011;23316;50.718;7.328;2023-06-26T14:43:24;5.18;;;1.50;;
37455;SDS011;23316;50.718;7.328;2023-06-26T14:45:51;3.38;;;1.50;;
37455;SDS011;23316;50.718;7.328;2023-06-26T14:48:19;7.65;;;1.80;;
37455;SDS011;23316;50.718;7.328;2023-06-26T14:50:46;7.45;;;1.50;;
37455;SDS011;23316;50.718;7.328;2023-06-26T14:53:15;4.55;;;1.40;;
37455;SDS011;23316;50.718;7.328;2023-06-26T14:55:42;12.93;;;1.67;;
37455;SDS011;23316;50.718;7.328;2023-06-26T14:58:09;4.93;;;1.40;;
37455;SDS011;23316;50.718;7.328;2023-06-26T15:00:36;5.95;;;1.60;;
37455;SDS011;23316;50.718;7.328;2023-06-26T15:03:03;6.03;;;1.35;;